createdAt,value
2018-03-30T00:00:20.799Z,70.80
2018-03-30T00:01:20.816Z,71.90
2018-03-30T00:02:20.858Z,71.20
2018-03-30T00:03:20.728Z,75.40
2018-03-30T00:04:20.864Z,66.00
2018-03-30T00:05:20.764Z,63.10
2018-03-30T00:06:20.783Z,69.40
2018-03-30T00:07:20.936Z,67.10
2018-03-30T00:08:20.800Z,63.00
2018-03-30T00:09:20.827Z,71.20
2018-03-30T00:10:20.965Z,70.60
2018-03-30T00:11:20.978Z,69.60
2018-03-30T00:12:21.144Z,68.70
2018-03-30T00:13:21.011Z,58.50
2018-03-30T00:14:21.025Z,69.20
2018-03-30T00:15:20.920Z,69.70
2018-03-30T00:16:21.062Z,75.20
2018-03-30T00:17:21.175Z,70.40
2018-03-30T00:18:21.092Z,71.70
2018-03-30T00:19:21.107Z,80.90
2018-03-30T00:20:20.990Z,78.10
2018-03-30T00:21:21.144Z,69.50
2018-03-30T00:22:21.140Z,72.00
2018-03-30T00:23:21.047Z,72.40
2018-03-30T00:24:21.072Z,72.10
2018-03-30T00:25:21.079Z,85.10
2018-03-30T00:26:21.101Z,72.40
2018-03-30T00:27:21.213Z,64.20
2018-03-30T00:28:21.135Z,70.20
2018-03-30T00:29:21.141Z,69.80
2018-03-30T00:30:21.163Z,67.20
2018-03-30T00:31:21.302Z,72.40
2018-03-30T00:32:21.467Z,73.00
2018-03-30T00:33:21.213Z,65.80
2018-03-30T00:34:21.255Z,68.30
2018-03-30T00:35:21.368Z,74.30
2018-03-30T00:36:21.256Z,65.10
2018-03-30T00:37:21.383Z,63.80
2018-03-30T00:38:21.294Z,68.50
2018-03-30T00:39:21.316Z,67.30
2018-03-30T00:40:21.329Z,67.30
2018-03-30T00:41:21.338Z,57.70
2018-03-30T00:42:21.457Z,51.30
2018-03-30T00:43:21.371Z,57.80
2018-03-30T00:44:21.512Z,55.60
2018-03-30T00:45:21.406Z,55.30
2018-03-30T00:46:21.418Z,68.30
2018-03-30T00:47:21.664Z,57.90
2018-03-30T00:48:21.452Z,53.40
2018-03-30T00:49:21.487Z,69.10
2018-03-30T00:50:21.485Z,62.00
2018-03-30T00:51:21.512Z,51.00
2018-03-30T00:52:21.616Z,55.70
2018-03-30T00:53:21.660Z,53.30
2018-03-30T00:54:21.548Z,58.50
2018-03-30T00:55:21.570Z,50.60
2018-03-30T00:56:21.578Z,47.50
2018-03-30T00:57:21.725Z,53.80
2018-03-30T00:58:21.845Z,53.50
2018-03-30T00:59:21.623Z,55.90
2018-03-30T01:00:21.652Z,55.50
2018-03-30T01:01:21.660Z,50.50
2018-03-30T01:02:21.807Z,52.20
2018-03-30T01:03:21.842Z,54.90
2018-03-30T01:04:21.709Z,58.00
2018-03-30T01:05:21.732Z,57.00
2018-03-30T01:06:21.867Z,58.90
2018-03-30T01:07:21.883Z,59.00
2018-03-30T01:08:21.780Z,57.60
2018-03-30T01:09:21.891Z,67.70
2018-03-30T01:10:21.931Z,67.90
2018-03-30T01:11:21.830Z,73.30
2018-03-30T01:12:21.845Z,65.80
2018-03-30T01:13:21.979Z,63.30
2018-03-30T01:14:22.033Z,70.70
2018-03-30T01:15:21.885Z,77.10
2018-03-30T01:16:21.920Z,70.40
2018-03-30T01:17:21.910Z,80.70
2018-03-30T01:18:21.944Z,71.20
2018-03-30T01:19:22.064Z,79.00
2018-03-30T01:20:22.095Z,71.40
2018-03-30T01:21:21.990Z,68.70
2018-03-30T01:22:22.124Z,66.20
2018-03-30T01:23:22.143Z,63.70
2018-03-30T01:24:22.133Z,63.30
2018-03-30T01:25:22.174Z,60.40
2018-03-30T01:26:22.191Z,73.10
2018-03-30T01:27:22.207Z,58.10
2018-03-30T01:28:22.097Z,58.80
2018-03-30T01:29:22.220Z,62.90
2018-03-30T01:30:22.126Z,61.70
2018-03-30T01:31:22.152Z,58.10
2018-03-30T01:32:22.177Z,64.10
2018-03-30T01:33:22.192Z,69.50
2018-03-30T01:34:22.293Z,60.00
2018-03-30T01:35:22.337Z,58.90
2018-03-30T01:36:22.234Z,61.50
2018-03-30T01:37:22.241Z,54.70
2018-03-30T01:38:22.387Z,52.10
2018-03-30T01:39:22.386Z,49.20
2018-03-30T01:40:22.299Z,48.90
2018-03-30T01:41:22.326Z,51.20
2018-03-30T01:42:22.323Z,55.50
2018-03-30T01:43:22.340Z,58.00
2018-03-30T01:44:22.467Z,54.90
2018-03-30T01:45:22.371Z,62.10
2018-03-30T01:46:22.517Z,59.40
2018-03-30T01:47:22.420Z,65.10
2018-03-30T01:48:22.428Z,62.50
2018-03-30T01:49:22.538Z,61.30
2018-03-30T01:50:22.459Z,64.70
2018-03-30T01:51:22.461Z,61.10
2018-03-30T01:52:22.612Z,60.30
2018-03-30T01:53:22.513Z,62.80
2018-03-30T01:54:22.616Z,67.80
2018-03-30T01:55:22.659Z,67.10
2018-03-30T01:56:22.564Z,64.00
2018-03-30T01:57:22.571Z,74.00
2018-03-30T01:58:22.711Z,64.80
2018-03-30T01:59:22.824Z,69.70
2018-03-30T02:00:22.628Z,71.30
2018-03-30T02:01:22.636Z,73.60
2018-03-30T02:02:22.772Z,70.40
2018-03-30T02:03:22.672Z,71.90
2018-03-30T02:04:22.806Z,70.20
2018-03-30T02:05:22.806Z,69.10
2018-03-30T02:06:22.713Z,67.10
2018-03-30T02:07:22.741Z,71.10
2018-03-30T02:08:22.871Z,69.40
2018-03-30T02:09:22.762Z,74.90
2018-03-30T02:10:22.886Z,76.10
2018-03-30T02:11:22.795Z,84.30
2018-03-30T02:12:22.959Z,81.70
2018-03-30T02:13:22.952Z,83.50
2018-03-30T02:14:22.857Z,78.10
2018-03-30T02:15:23.084Z,85.30
2018-03-30T02:16:22.884Z,71.00
2018-03-30T02:17:22.899Z,74.30
2018-03-30T02:18:22.902Z,72.10
2018-03-30T02:19:22.933Z,63.20
2018-03-30T02:20:23.168Z,69.30
2018-03-30T02:21:23.083Z,67.90
2018-03-30T02:22:22.973Z,65.30
2018-03-30T02:23:23.116Z,71.30
2018-03-30T02:24:23.132Z,70.90
2018-03-30T02:25:23.250Z,80.90
2018-03-30T02:26:23.047Z,69.90
2018-03-30T02:27:23.052Z,75.10
2018-03-30T02:28:23.067Z,69.50
2018-03-30T02:29:23.213Z,67.30
2018-03-30T02:30:23.199Z,68.70
2018-03-30T02:31:23.133Z,65.90
2018-03-30T02:32:23.264Z,63.60
2018-03-30T02:33:23.281Z,66.10
2018-03-30T02:34:23.171Z,74.10
2018-03-30T02:35:23.409Z,76.20
2018-03-30T02:36:23.330Z,62.70
2018-03-30T02:37:23.216Z,70.70
2018-03-30T02:38:23.360Z,68.00
2018-03-30T02:39:23.251Z,85.70
2018-03-30T02:40:23.495Z,78.70
2018-03-30T02:41:23.408Z,71.70
2018-03-30T02:42:23.300Z,63.00
2018-03-30T02:43:23.441Z,72.70
2018-03-30T02:44:23.345Z,76.50
2018-03-30T02:45:23.461Z,75.90
2018-03-30T02:46:23.374Z,79.30
2018-03-30T02:47:23.506Z,83.60
2018-03-30T02:48:23.396Z,71.70
2018-03-30T02:49:23.541Z,78.00
2018-03-30T02:50:23.657Z,74.50
2018-03-30T02:51:23.572Z,73.40
2018-03-30T02:52:23.471Z,78.50
2018-03-30T02:53:23.478Z,72.20
2018-03-30T02:54:23.504Z,66.10
2018-03-30T02:55:23.612Z,71.80
2018-03-30T02:56:23.656Z,76.30
2018-03-30T02:57:23.668Z,71.60
2018-03-30T02:58:23.686Z,71.40
2018-03-30T02:59:23.587Z,70.40
2018-03-30T03:00:23.716Z,77.20
2018-03-30T03:01:23.707Z,73.30
2018-03-30T03:02:23.749Z,74.20
2018-03-30T03:03:23.643Z,72.60
2018-03-30T03:04:23.783Z,82.50
2018-03-30T03:05:23.798Z,82.30
2018-03-30T03:06:23.914Z,82.10
2018-03-30T03:07:23.707Z,78.40
2018-03-30T03:08:23.719Z,77.40
2018-03-30T03:09:23.863Z,84.20
2018-03-30T03:10:23.752Z,81.10
2018-03-30T03:11:23.878Z,80.40
2018-03-30T03:12:23.910Z,77.70
2018-03-30T03:13:23.932Z,76.60
2018-03-30T03:14:23.829Z,85.10
2018-03-30T03:15:23.833Z,84.10
2018-03-30T03:16:23.979Z,81.20
2018-03-30T03:17:24.093Z,82.50
2018-03-30T03:18:24.007Z,89.30
2018-03-30T03:19:24.024Z,82.00
2018-03-30T03:20:23.908Z,94.40
2018-03-30T03:21:23.944Z,81.10
2018-03-30T03:22:24.049Z,78.50
2018-03-30T03:23:23.973Z,77.00
2018-03-30T03:24:24.105Z,81.00
2018-03-30T03:25:23.995Z,81.40
2018-03-30T03:26:24.136Z,91.20
2018-03-30T03:27:24.251Z,89.20
2018-03-30T03:28:24.168Z,86.30
2018-03-30T03:29:24.185Z,86.40
2018-03-30T03:30:24.075Z,74.90
2018-03-30T03:31:24.218Z,73.90
2018-03-30T03:32:24.220Z,74.00
2018-03-30T03:33:24.122Z,72.40
2018-03-30T03:34:24.264Z,74.60
2018-03-30T03:35:24.158Z,74.80
2018-03-30T03:36:24.168Z,84.40
2018-03-30T03:37:24.286Z,79.80
2018-03-30T03:38:24.200Z,80.90
2018-03-30T03:39:24.219Z,77.50
2018-03-30T03:40:24.238Z,77.40
2018-03-30T03:41:24.260Z,77.60
2018-03-30T03:42:24.496Z,80.90
2018-03-30T03:43:24.409Z,81.20
2018-03-30T03:44:24.426Z,79.70
2018-03-30T03:45:24.316Z,85.40
2018-03-30T03:46:24.338Z,87.50
2018-03-30T03:47:24.576Z,83.90
2018-03-30T03:48:24.368Z,84.60
2018-03-30T03:49:24.507Z,88.50
2018-03-30T03:50:24.402Z,91.10
2018-03-30T03:51:24.537Z,85.80
2018-03-30T03:52:24.554Z,89.70
2018-03-30T03:53:24.544Z,86.70
2018-03-30T03:54:24.465Z,92.40
2018-03-30T03:55:24.470Z,88.50
2018-03-30T03:56:24.496Z,89.00
2018-03-30T03:57:24.634Z,74.70
2018-03-30T03:58:24.751Z,89.80
2018-03-30T03:59:24.555Z,85.10
2018-03-30T04:00:24.572Z,81.40
2018-03-30T04:01:24.575Z,88.70
2018-03-30T04:02:24.600Z,91.90
2018-03-30T04:03:24.852Z,94.60
2018-03-30T04:04:24.750Z,83.50
2018-03-30T04:05:24.645Z,81.30
2018-03-30T04:06:24.781Z,77.20
2018-03-30T04:07:24.675Z,83.70
2018-03-30T04:08:24.810Z,97.70
2018-03-30T04:09:24.927Z,80.30
2018-03-30T04:10:24.718Z,88.20
2018-03-30T04:11:24.782Z,90.20
2018-03-30T04:12:24.877Z,90.30
2018-03-30T04:13:24.762Z,90.10
2018-03-30T04:14:25.006Z,90.60
2018-03-30T04:15:24.805Z,101.00
2018-03-30T04:16:24.813Z,114.00
2018-03-30T04:17:24.842Z,114.30
2018-03-30T04:18:24.971Z,117.70
2018-03-30T04:19:24.959Z,110.30
2018-03-30T04:20:25.004Z,101.60
2018-03-30T04:21:24.895Z,126.80
2018-03-30T04:22:24.915Z,126.20
2018-03-30T04:23:24.924Z,115.60
2018-03-30T04:24:25.043Z,124.70
2018-03-30T04:25:24.966Z,104.50
2018-03-30T04:26:24.976Z,123.50
2018-03-30T04:27:24.996Z,138.90
2018-03-30T04:28:25.021Z,157.60
2018-03-30T04:29:25.248Z,152.50
2018-03-30T04:30:25.052Z,141.40
2018-03-30T04:31:25.063Z,148.00
2018-03-30T04:32:25.195Z,169.90
2018-03-30T04:33:25.212Z,194.00
2018-03-30T04:34:25.200Z,141.70
2018-03-30T04:35:25.245Z,180.10
2018-03-30T04:36:25.260Z,134.80
2018-03-30T04:37:25.152Z,147.30
2018-03-30T04:38:25.292Z,123.00
2018-03-30T04:39:25.284Z,138.80
2018-03-30T04:40:25.324Z,165.00
2018-03-30T04:41:25.215Z,174.80
2018-03-30T04:42:25.359Z,141.20
2018-03-30T04:43:25.375Z,146.80
2018-03-30T04:44:25.360Z,139.60
2018-03-30T04:45:25.285Z,147.90
2018-03-30T04:46:25.293Z,139.10
2018-03-30T04:47:25.310Z,140.30
2018-03-30T04:48:25.460Z,145.30
2018-03-30T04:49:25.446Z,175.40
2018-03-30T04:50:25.486Z,135.80
2018-03-30T04:51:25.502Z,137.30
2018-03-30T04:52:25.390Z,148.30
2018-03-30T04:53:25.414Z,154.70
2018-03-30T04:54:25.522Z,143.20
2018-03-30T04:55:25.448Z,123.30
2018-03-30T04:56:25.580Z,140.90
2018-03-30T04:57:25.474Z,142.60
2018-03-30T04:58:25.610Z,156.40
2018-03-30T04:59:25.730Z,171.20
2018-03-30T05:00:25.516Z,130.70
2018-03-30T05:01:25.542Z,139.00
2018-03-30T05:02:25.676Z,138.30
2018-03-30T05:03:25.693Z,156.00
2018-03-30T05:04:25.583Z,154.00
2018-03-30T05:05:25.829Z,164.70
2018-03-30T05:06:25.741Z,152.00
2018-03-30T05:07:25.631Z,125.90
2018-03-30T05:08:25.775Z,154.40
2018-03-30T05:09:25.791Z,192.50
2018-03-30T05:10:25.904Z,199.10
2018-03-30T05:11:25.710Z,166.30
2018-03-30T05:12:25.719Z,205.10
2018-03-30T05:13:25.740Z,155.40
2018-03-30T05:14:25.877Z,173.30
2018-03-30T05:15:25.985Z,189.40
2018-03-30T05:16:25.782Z,187.70
2018-03-30T05:17:25.919Z,164.20
2018-03-30T05:18:25.932Z,165.70
2018-03-30T05:19:25.821Z,186.50
2018-03-30T05:20:25.967Z,147.00
2018-03-30T05:21:25.966Z,151.60
2018-03-30T05:22:25.872Z,125.60
2018-03-30T05:23:26.013Z,140.40
2018-03-30T05:24:26.029Z,118.50
2018-03-30T05:25:25.923Z,146.40
2018-03-30T05:26:26.049Z,115.60
2018-03-30T05:27:26.080Z,92.40
2018-03-30T05:28:25.974Z,109.80
2018-03-30T05:29:25.981Z,93.40
2018-03-30T05:30:25.999Z,85.70
2018-03-30T05:31:26.243Z,102.30
2018-03-30T05:32:26.030Z,90.80
2018-03-30T05:33:26.171Z,119.90
2018-03-30T05:34:26.189Z,103.00
2018-03-30T05:35:26.090Z,96.50
2018-03-30T05:36:26.325Z,91.10
2018-03-30T05:37:26.117Z,88.20
2018-03-30T05:38:26.250Z,92.50
2018-03-30T05:39:26.143Z,96.30
2018-03-30T05:40:26.159Z,80.90
2018-03-30T05:41:26.282Z,87.00
2018-03-30T05:42:26.190Z,98.70
2018-03-30T05:43:26.331Z,109.80
2018-03-30T05:44:26.346Z,104.20
2018-03-30T05:45:26.363Z,96.70
2018-03-30T05:46:26.350Z,102.50
2018-03-30T05:47:26.270Z,101.50
2018-03-30T05:48:26.296Z,97.00
2018-03-30T05:49:26.298Z,93.10
2018-03-30T05:50:26.441Z,81.40
2018-03-30T05:51:26.560Z,90.60
2018-03-30T05:52:26.476Z,87.40
2018-03-30T05:53:26.364Z,94.10
2018-03-30T05:54:26.502Z,92.20
2018-03-30T05:55:26.522Z,103.70
2018-03-30T05:56:26.512Z,96.80
2018-03-30T05:57:26.427Z,106.30
2018-03-30T05:58:26.567Z,99.20
2018-03-30T05:59:26.458Z,97.70
2018-03-30T06:00:26.601Z,99.60
2018-03-30T06:01:26.601Z,96.80
2018-03-30T06:02:26.632Z,94.30
2018-03-30T06:03:26.650Z,91.90
2018-03-30T06:04:26.663Z,85.60
2018-03-30T06:05:26.555Z,99.10
2018-03-30T06:06:26.675Z,77.00
2018-03-30T06:07:26.712Z,86.20
2018-03-30T06:08:26.597Z,91.50
2018-03-30T06:09:26.742Z,81.10
2018-03-30T06:10:26.628Z,94.70
2018-03-30T06:11:26.877Z,100.80
2018-03-30T06:12:26.788Z,94.90
2018-03-30T06:13:26.843Z,96.20
2018-03-30T06:14:26.705Z,96.10
2018-03-30T06:15:26.838Z,91.60
2018-03-30T06:16:27.001Z,90.20
2018-03-30T06:17:26.870Z,88.10
2018-03-30T06:18:26.769Z,85.90
2018-03-30T06:19:26.786Z,88.70
2018-03-30T06:20:26.918Z,99.40
2018-03-30T06:21:26.967Z,93.20
2018-03-30T06:22:26.822Z,91.50
2018-03-30T06:23:26.964Z,87.90
2018-03-30T06:24:26.859Z,93.30
2018-03-30T06:25:26.875Z,81.00
2018-03-30T06:26:27.109Z,83.30
2018-03-30T06:27:26.898Z,77.40
2018-03-30T06:28:26.914Z,80.70
2018-03-30T06:29:26.943Z,84.40
2018-03-30T06:30:26.960Z,80.70
2018-03-30T06:31:27.105Z,67.80
2018-03-30T06:32:26.992Z,70.20
2018-03-30T06:33:26.998Z,67.40
2018-03-30T06:34:27.134Z,65.10
2018-03-30T06:35:27.021Z,67.20
2018-03-30T06:36:27.320Z,58.80
2018-03-30T06:37:27.064Z,63.10
2018-03-30T06:38:27.072Z,60.80
2018-03-30T06:39:27.096Z,63.90
2018-03-30T06:40:27.111Z,63.20
2018-03-30T06:41:27.400Z,62.00
2018-03-30T06:42:27.263Z,64.10
2018-03-30T06:43:27.152Z,62.70
2018-03-30T06:44:27.172Z,58.50
2018-03-30T06:45:27.310Z,56.10
2018-03-30T06:46:27.312Z,47.70
2018-03-30T06:47:27.225Z,52.50
2018-03-30T06:48:27.358Z,55.30
2018-03-30T06:49:27.373Z,58.00
2018-03-30T06:50:27.387Z,59.60
2018-03-30T06:51:27.552Z,54.10
2018-03-30T06:52:27.300Z,52.00
2018-03-30T06:53:27.309Z,53.30
2018-03-30T06:54:27.450Z,47.50
2018-03-30T06:55:27.465Z,51.90
2018-03-30T06:56:27.456Z,49.30
2018-03-30T06:57:27.379Z,48.70
2018-03-30T06:58:27.388Z,53.30
2018-03-30T06:59:27.404Z,49.30
2018-03-30T07:00:27.431Z,45.00
2018-03-30T07:01:27.548Z,44.00
2018-03-30T07:02:27.466Z,44.50
2018-03-30T07:03:27.594Z,54.30
2018-03-30T07:04:27.611Z,45.80
2018-03-30T07:05:27.505Z,44.80
2018-03-30T07:06:27.662Z,44.60
2018-03-30T07:07:27.536Z,49.40
2018-03-30T07:08:27.671Z,46.10
2018-03-30T07:09:27.574Z,42.60
2018-03-30T07:10:27.702Z,45.10
2018-03-30T07:11:27.594Z,39.70
2018-03-30T07:12:27.836Z,39.40
2018-03-30T07:13:27.754Z,41.30
2018-03-30T07:14:27.663Z,44.80
2018-03-30T07:15:27.652Z,39.40
2018-03-30T07:16:27.677Z,45.60
2018-03-30T07:17:27.791Z,42.00
2018-03-30T07:18:27.826Z,44.50
2018-03-30T07:19:27.716Z,44.60
2018-03-30T07:20:27.741Z,47.20
2018-03-30T07:21:27.746Z,47.80
2018-03-30T07:22:27.922Z,46.90
2018-03-30T07:23:27.780Z,49.60
2018-03-30T07:24:27.799Z,41.30
2018-03-30T07:25:27.823Z,43.90
2018-03-30T07:26:27.840Z,43.60
2018-03-30T07:27:28.013Z,41.20
2018-03-30T07:28:27.855Z,39.90
2018-03-30T07:29:28.002Z,41.20
2018-03-30T07:30:27.890Z,38.20
2018-03-30T07:31:27.907Z,39.70
2018-03-30T07:32:28.072Z,44.10
2018-03-30T07:33:27.944Z,34.90
2018-03-30T07:34:27.952Z,37.10
2018-03-30T07:35:27.975Z,38.00
2018-03-30T07:36:27.983Z,38.90
2018-03-30T07:37:28.276Z,38.60
2018-03-30T07:38:28.012Z,40.40
2018-03-30T07:39:28.045Z,39.20
2018-03-30T07:40:28.049Z,33.60
2018-03-30T07:41:28.188Z,36.70
2018-03-30T07:42:28.241Z,37.90
2018-03-30T07:43:28.221Z,37.50
2018-03-30T07:44:28.111Z,39.30
2018-03-30T07:45:28.129Z,36.40
2018-03-30T07:46:28.139Z,33.30
2018-03-30T07:47:28.264Z,38.90
2018-03-30T07:48:28.298Z,37.70
2018-03-30T07:49:28.196Z,38.70
2018-03-30T07:50:28.223Z,39.30
2018-03-30T07:51:28.345Z,38.80
2018-03-30T07:52:28.392Z,32.70
2018-03-30T07:53:28.252Z,33.00
2018-03-30T07:54:28.392Z,37.60
2018-03-30T07:55:28.282Z,31.80
2018-03-30T07:56:28.424Z,33.00
2018-03-30T07:57:28.414Z,41.10
2018-03-30T07:58:28.343Z,35.80
2018-03-30T07:59:28.354Z,35.30
2018-03-30T08:00:28.489Z,28.80
2018-03-30T08:01:28.375Z,32.00
2018-03-30T08:02:28.490Z,31.90
2018-03-30T08:03:28.421Z,29.10
2018-03-30T08:04:28.425Z,29.10
2018-03-30T08:05:28.567Z,33.10
2018-03-30T08:06:28.456Z,31.10
2018-03-30T08:07:28.583Z,30.20
2018-03-30T08:08:28.614Z,26.60
2018-03-30T08:09:28.508Z,33.50
2018-03-30T08:10:28.526Z,33.30
2018-03-30T08:11:28.663Z,25.80
2018-03-30T08:12:28.777Z,32.50
2018-03-30T08:13:28.692Z,27.30
2018-03-30T08:14:28.590Z,28.20
2018-03-30T08:15:28.598Z,25.20
2018-03-30T08:16:28.612Z,26.60
2018-03-30T08:17:28.737Z,27.40
2018-03-30T08:18:28.657Z,26.50
2018-03-30T08:19:28.668Z,27.10
2018-03-30T08:20:28.806Z,28.30
2018-03-30T08:21:28.694Z,26.00
2018-03-30T08:22:28.721Z,31.80
2018-03-30T08:23:28.832Z,24.90
2018-03-30T08:24:28.740Z,25.00
2018-03-30T08:25:28.884Z,31.00
2018-03-30T08:26:28.897Z,26.10
2018-03-30T08:27:28.914Z,28.00
2018-03-30T08:28:28.965Z,27.80
2018-03-30T08:29:28.948Z,27.30
2018-03-30T08:30:28.960Z,24.80
2018-03-30T08:31:28.846Z,26.40
2018-03-30T08:32:28.995Z,25.30
2018-03-30T08:33:28.999Z,26.20
2018-03-30T08:34:29.026Z,25.00
2018-03-30T08:35:28.910Z,29.00
2018-03-30T08:36:29.056Z,26.00
2018-03-30T08:37:28.946Z,25.30
2018-03-30T08:38:29.074Z,27.70
2018-03-30T08:39:28.974Z,24.80
2018-03-30T08:40:29.117Z,27.60
2018-03-30T08:41:29.138Z,27.50
2018-03-30T08:42:29.149Z,26.20
2018-03-30T08:43:29.320Z,25.00
2018-03-30T08:44:29.184Z,24.30
2018-03-30T08:45:29.082Z,25.80
2018-03-30T08:46:29.089Z,28.20
2018-03-30T08:47:29.235Z,26.20
2018-03-30T08:48:29.345Z,25.70
2018-03-30T08:49:29.262Z,27.00
2018-03-30T08:50:29.157Z,26.40
2018-03-30T08:51:29.292Z,24.60
2018-03-30T08:52:29.311Z,26.10
2018-03-30T08:53:29.306Z,26.20
2018-03-30T08:54:29.226Z,25.10
2018-03-30T08:55:29.357Z,26.30
2018-03-30T08:56:29.370Z,26.10
2018-03-30T08:57:29.273Z,28.00
2018-03-30T08:58:29.374Z,26.30
2018-03-30T08:59:29.418Z,28.40
2018-03-30T09:00:29.316Z,25.80
2018-03-30T09:01:29.324Z,25.50
2018-03-30T09:02:29.465Z,26.40
2018-03-30T09:03:29.454Z,24.90
2018-03-30T09:04:29.498Z,26.10
2018-03-30T09:05:29.395Z,25.60
2018-03-30T09:06:29.527Z,25.80
2018-03-30T09:07:29.543Z,26.40
2018-03-30T09:08:29.457Z,28.90
2018-03-30T09:09:29.563Z,27.80
2018-03-30T09:10:29.589Z,26.00
2018-03-30T09:11:29.489Z,26.50
2018-03-30T09:12:29.496Z,26.90
2018-03-30T09:13:29.638Z,26.50
2018-03-30T09:14:29.753Z,26.90
2018-03-30T09:15:29.551Z,28.30
2018-03-30T09:16:29.689Z,28.10
2018-03-30T09:17:29.704Z,27.10
2018-03-30T09:18:29.715Z,28.00
2018-03-30T09:19:29.762Z,28.90
2018-03-30T09:20:29.762Z,28.30
2018-03-30T09:21:29.763Z,28.20
2018-03-30T09:22:29.657Z,28.70
2018-03-30T09:23:29.794Z,31.00
2018-03-30T09:24:29.696Z,29.70
2018-03-30T09:25:29.977Z,29.70
2018-03-30T09:26:29.728Z,29.10
2018-03-30T09:27:29.731Z,29.30
2018-03-30T09:28:29.754Z,29.80
2018-03-30T09:29:29.764Z,30.00
2018-03-30T09:30:30.005Z,31.30
2018-03-30T09:31:29.792Z,28.80
2018-03-30T09:32:29.840Z,28.70
2018-03-30T09:33:29.955Z,30.40
2018-03-30T09:34:29.851Z,31.50
2018-03-30T09:35:30.083Z,29.60
2018-03-30T09:36:29.885Z,28.60
2018-03-30T09:37:30.018Z,29.70
2018-03-30T09:38:29.918Z,29.30
2018-03-30T09:39:29.919Z,31.50
2018-03-30T09:40:30.038Z,28.10
2018-03-30T09:41:30.079Z,29.30
2018-03-30T09:42:29.968Z,26.70
2018-03-30T09:43:29.986Z,26.40
2018-03-30T09:44:30.126Z,27.30
2018-03-30T09:45:30.244Z,28.80
2018-03-30T09:46:30.158Z,29.10
2018-03-30T09:47:30.174Z,29.00
2018-03-30T09:48:30.072Z,29.30
2018-03-30T09:49:30.211Z,29.50
2018-03-30T09:50:30.210Z,31.50
2018-03-30T09:51:30.117Z,30.30
2018-03-30T09:52:30.135Z,30.00
2018-03-30T09:53:30.274Z,32.50
2018-03-30T09:54:30.163Z,31.00
2018-03-30T09:55:30.286Z,32.00
2018-03-30T09:56:30.193Z,30.70
2018-03-30T09:57:30.338Z,30.40
2018-03-30T09:58:30.355Z,31.30
2018-03-30T09:59:30.248Z,32.00
2018-03-30T10:00:30.414Z,32.50
2018-03-30T10:01:30.291Z,31.40
2018-03-30T10:02:30.306Z,30.60
2018-03-30T10:03:30.318Z,31.60
2018-03-30T10:04:30.327Z,31.80
2018-03-30T10:05:30.573Z,31.90
2018-03-30T10:06:30.360Z,30.90
2018-03-30T10:07:30.384Z,31.00
2018-03-30T10:08:30.394Z,31.60
2018-03-30T10:09:30.409Z,30.90
2018-03-30T10:10:30.533Z,29.90
2018-03-30T10:11:30.570Z,32.80
2018-03-30T10:12:30.458Z,31.00
2018-03-30T10:13:30.486Z,30.90
2018-03-30T10:14:30.506Z,30.40
2018-03-30T10:15:30.620Z,30.80
2018-03-30T10:16:30.529Z,31.40
2018-03-30T10:17:30.672Z,30.00
2018-03-30T10:18:30.564Z,31.20
2018-03-30T10:19:30.568Z,31.90
2018-03-30T10:20:30.605Z,30.10
2018-03-30T10:21:30.885Z,30.70
2018-03-30T10:22:30.626Z,31.20
2018-03-30T10:23:30.640Z,30.00
2018-03-30T10:24:30.692Z,30.50
2018-03-30T10:25:30.804Z,31.40
2018-03-30T10:26:30.802Z,31.30
2018-03-30T10:27:30.710Z,30.30
2018-03-30T10:28:30.724Z,29.90
2018-03-30T10:29:30.748Z,29.80
2018-03-30T10:30:30.763Z,31.60
2018-03-30T10:31:30.782Z,30.30
2018-03-30T10:32:30.892Z,32.30
2018-03-30T10:33:30.816Z,30.80
2018-03-30T10:34:30.823Z,31.30
2018-03-30T10:35:30.850Z,30.00
2018-03-30T10:36:30.983Z,30.00
2018-03-30T10:37:30.979Z,29.40
2018-03-30T10:38:30.904Z,30.50
2018-03-30T10:39:31.036Z,30.40
2018-03-30T10:40:31.054Z,30.10
2018-03-30T10:41:31.068Z,28.20
2018-03-30T10:42:31.234Z,28.70
2018-03-30T10:43:31.023Z,29.20
2018-03-30T10:44:31.119Z,29.70
2018-03-30T10:45:31.009Z,30.50
2018-03-30T10:46:31.035Z,28.80
2018-03-30T10:47:31.272Z,28.90
2018-03-30T10:48:31.063Z,29.60
2018-03-30T10:49:31.091Z,29.80
2018-03-30T10:50:31.094Z,31.80
2018-03-30T10:51:31.117Z,29.20
2018-03-30T10:52:31.355Z,28.90
2018-03-30T10:53:31.271Z,28.00
2018-03-30T10:54:31.287Z,29.50
2018-03-30T10:55:31.189Z,29.10
2018-03-30T10:56:31.203Z,28.20
2018-03-30T10:57:31.326Z,26.30
2018-03-30T10:58:31.356Z,26.50
2018-03-30T10:59:31.260Z,27.20
2018-03-30T11:00:31.392Z,25.70
2018-03-30T11:01:31.417Z,26.70
2018-03-30T11:02:31.468Z,24.90
2018-03-30T11:03:31.318Z,25.50
2018-03-30T11:04:31.343Z,23.90
2018-03-30T11:05:31.353Z,22.20
2018-03-30T11:06:31.379Z,22.80
2018-03-30T11:07:31.619Z,20.30
2018-03-30T11:08:31.535Z,20.80
2018-03-30T11:09:31.557Z,19.70
2018-03-30T11:10:31.454Z,20.00
2018-03-30T11:11:31.480Z,19.20
2018-03-30T11:12:31.714Z,18.70
2018-03-30T11:13:31.631Z,19.40
2018-03-30T11:14:31.649Z,19.10
2018-03-30T11:15:31.544Z,17.90
2018-03-30T11:16:31.568Z,17.60
2018-03-30T11:17:31.691Z,18.20
2018-03-30T11:18:31.603Z,17.60
2018-03-30T11:19:31.624Z,16.40
2018-03-30T11:20:31.657Z,16.90
2018-03-30T11:21:31.668Z,16.60
2018-03-30T11:22:31.798Z,16.80
2018-03-30T11:23:31.713Z,16.80
2018-03-30T11:24:31.728Z,17.10
2018-03-30T11:25:31.747Z,15.50
2018-03-30T11:26:31.768Z,14.90
2018-03-30T11:27:31.942Z,17.00
2018-03-30T11:28:31.819Z,17.40
2018-03-30T11:29:31.963Z,15.70
2018-03-30T11:30:31.980Z,16.30
2018-03-30T11:31:32.005Z,16.70
2018-03-30T11:32:32.225Z,15.20
2018-03-30T11:33:31.933Z,14.70
2018-03-30T11:34:31.938Z,15.50
2018-03-30T11:35:32.086Z,14.30
2018-03-30T11:36:32.109Z,15.20
2018-03-30T11:37:32.102Z,17.00
2018-03-30T11:38:32.038Z,16.70
2018-03-30T11:39:32.058Z,16.80
2018-03-30T11:40:32.076Z,17.70
2018-03-30T11:41:32.089Z,16.20
2018-03-30T11:42:32.212Z,15.30
2018-03-30T11:43:32.259Z,17.10
2018-03-30T11:44:32.158Z,15.20
2018-03-30T11:45:32.302Z,16.10
2018-03-30T11:46:32.325Z,16.70
2018-03-30T11:47:32.495Z,16.00
2018-03-30T11:48:32.248Z,17.20
2018-03-30T11:49:32.389Z,15.50
2018-03-30T11:50:32.419Z,15.90
2018-03-30T11:51:32.432Z,16.10
2018-03-30T11:52:32.555Z,15.60
2018-03-30T11:53:32.473Z,15.60
2018-03-30T11:54:32.368Z,15.20
2018-03-30T11:55:32.388Z,15.00
2018-03-30T11:56:32.415Z,14.20
2018-03-30T11:57:32.616Z,15.20
2018-03-30T11:58:32.455Z,15.70
2018-03-30T11:59:32.602Z,15.70
2018-03-30T12:00:32.505Z,15.40
2018-03-30T12:01:32.521Z,16.10
2018-03-30T12:02:32.819Z,15.90
2018-03-30T12:03:32.564Z,17.20
2018-03-30T12:04:32.711Z,19.80
2018-03-30T12:05:32.616Z,16.40
2018-03-30T12:06:32.641Z,16.80
2018-03-30T12:07:32.758Z,16.60
2018-03-30T12:08:32.801Z,17.10
2018-03-30T12:10:32.843Z,16.50
2018-03-30T12:11:32.745Z,15.90
2018-03-30T12:12:32.754Z,15.60
2018-03-30T12:13:32.928Z,15.30
2018-03-30T12:14:32.926Z,16.10
2018-03-30T12:15:32.836Z,16.70
2018-03-30T12:16:32.843Z,16.90
2018-03-30T12:17:32.879Z,18.30
2018-03-30T12:18:33.115Z,16.80
2018-03-30T12:19:33.037Z,15.90
2018-03-30T12:20:32.937Z,15.40
2018-03-30T12:21:32.963Z,18.50
2018-03-30T12:22:32.973Z,17.50
2018-03-30T12:23:33.217Z,17.20
2018-03-30T12:24:33.020Z,16.40
2018-03-30T12:25:33.041Z,16.90
2018-03-30T12:26:33.179Z,17.70
2018-03-30T12:27:33.085Z,16.30
2018-03-30T12:28:33.322Z,14.30
2018-03-30T12:29:33.117Z,13.40
2018-03-30T12:30:33.144Z,15.70
2018-03-30T12:31:33.157Z,16.60
2018-03-30T12:32:33.178Z,16.80
2018-03-30T12:33:33.426Z,16.50
2018-03-30T12:34:33.220Z,16.60
2018-03-30T12:35:33.367Z,17.20
2018-03-30T12:36:33.386Z,15.40
2018-03-30T12:37:33.412Z,14.70
2018-03-30T12:38:33.528Z,15.60
2018-03-30T12:39:33.451Z,15.20
2018-03-30T12:40:33.469Z,15.60
2018-03-30T12:41:33.494Z,15.40
2018-03-30T12:42:33.511Z,14.40
2018-03-30T12:43:33.684Z,14.30
2018-03-30T12:44:33.424Z,14.60
2018-03-30T12:45:33.572Z,13.40
2018-03-30T12:46:33.465Z,13.90
2018-03-30T12:47:33.613Z,15.20
2018-03-30T12:48:33.514Z,14.30
2018-03-30T12:49:33.758Z,14.80
2018-03-30T12:50:33.554Z,13.00
2018-03-30T12:51:33.568Z,14.60